createdAt,value
2018-08-23T00:01:37.461Z,97033.00
2018-08-23T00:04:12.074Z,97028.00
2018-08-23T00:06:52.230Z,97025.00
2018-08-23T00:09:22.622Z,97029.00
2018-08-23T00:11:53.243Z,97031.00
2018-08-23T00:14:23.857Z,97035.00
2018-08-23T00:16:54.856Z,97037.00
2018-08-23T00:19:26.789Z,97031.00
2018-08-23T00:21:57.426Z,97029.00
2018-08-23T00:24:27.779Z,97034.00
2018-08-23T00:26:59.397Z,97033.00
2018-08-23T00:29:30.844Z,97037.00
2018-08-23T00:32:05.243Z,97037.00
2018-08-23T00:34:37.699Z,97038.00
2018-08-23T00:37:08.733Z,97041.00
2018-08-23T00:39:39.047Z,97043.00
2018-08-23T00:42:15.157Z,97036.00
2018-08-23T00:45:00.994Z,97045.00
2018-08-23T00:47:34.336Z,97040.00
2018-08-23T00:50:04.861Z,97041.00
2018-08-23T00:52:47.714Z,97037.00
2018-08-23T00:55:31.921Z,97040.00
2018-08-23T00:58:05.178Z,97046.00
2018-08-23T01:00:35.747Z,97040.00
2018-08-23T01:03:06.677Z,97042.00
2018-08-23T01:05:40.768Z,97046.00
2018-08-23T01:08:11.381Z,97043.00
2018-08-23T01:10:41.873Z,97045.00
2018-08-23T01:13:12.239Z,97035.00
2018-08-23T01:15:50.232Z,97039.00
2018-08-23T01:18:21.914Z,97040.00
2018-08-23T01:20:53.489Z,97042.00
2018-08-23T01:23:23.812Z,97040.00
2018-08-23T01:25:54.221Z,97041.00
2018-08-23T01:28:24.534Z,97037.00
2018-08-23T01:30:55.495Z,97043.00
2018-08-23T01:33:25.890Z,97040.00
2018-08-23T01:35:56.402Z,97035.00
2018-08-23T01:38:27.124Z,97034.00
2018-08-23T01:41:02.655Z,97025.00
2018-08-23T01:43:33.049Z,97020.00
2018-08-23T01:46:05.057Z,97019.00
2018-08-23T01:48:37.900Z,97011.00
2018-08-23T01:51:08.950Z,97010.00
2018-08-23T01:53:39.475Z,97009.00
2018-08-23T01:56:10.178Z,97002.00
2018-08-23T01:58:40.874Z,97003.00
2018-08-23T02:01:20.191Z,97000.00
2018-08-23T02:03:50.494Z,97002.00
2018-08-23T02:06:20.787Z,97004.00
2018-08-23T02:08:51.355Z,97004.00
2018-08-23T02:11:21.659Z,97000.00
2018-08-23T02:13:52.534Z,97001.00
2018-08-23T02:16:22.994Z,97004.00
2018-08-23T02:18:53.538Z,97008.00
2018-08-23T02:21:24.000Z,97010.00
2018-08-23T02:23:54.619Z,97015.00
2018-08-23T02:26:25.156Z,97015.00
2018-08-23T02:28:55.746Z,97020.00
2018-08-23T02:31:26.081Z,97024.00
2018-08-23T02:34:01.414Z,97024.00
2018-08-23T02:36:31.760Z,97026.00
2018-08-23T02:39:04.700Z,97026.00
2018-08-23T02:41:35.087Z,97027.00
2018-08-23T02:44:05.800Z,97026.00
2018-08-23T02:46:36.355Z,97018.00
2018-08-23T02:49:06.872Z,97017.00
2018-08-23T02:51:42.723Z,97013.00
2018-08-23T02:54:14.578Z,97007.00
2018-08-23T02:56:49.916Z,97007.00
2018-08-23T03:02:24.958Z,96999.00
2018-08-23T03:04:56.096Z,96991.00
2018-08-23T03:07:28.927Z,96986.00
2018-08-23T03:10:00.658Z,96978.00
2018-08-23T03:12:31.768Z,96976.00
2018-08-23T03:15:02.718Z,96976.00
2018-08-23T03:17:40.722Z,96973.00
2018-08-23T03:20:18.758Z,96975.00
2018-08-23T03:22:50.996Z,96973.00
2018-08-23T03:25:22.815Z,96972.00
2018-08-23T03:27:55.652Z,96968.00
2018-08-23T03:30:26.595Z,96965.00
2018-08-23T03:32:57.542Z,96963.00
2018-08-23T03:35:28.546Z,96957.00
2018-08-23T03:37:59.570Z,96962.00
2018-08-23T03:40:30.672Z,96960.00
2018-08-23T03:43:01.587Z,96952.00
2018-08-23T03:45:33.796Z,96957.00
2018-08-23T03:48:04.908Z,96950.00
2018-08-23T03:50:46.371Z,96952.00
2018-08-23T03:53:17.313Z,96946.00
2018-08-23T03:56:06.911Z,96941.00
2018-08-23T03:58:38.039Z,96945.00
2018-08-23T04:01:13.060Z,96946.00
2018-08-23T04:03:43.492Z,96942.00
2018-08-23T04:06:39.880Z,96942.00
2018-08-23T04:09:10.466Z,96947.00
2018-08-23T04:11:47.572Z,96953.00
2018-08-23T04:14:17.975Z,96948.00
2018-08-23T04:16:48.462Z,96951.00
2018-08-23T04:19:18.723Z,96956.00
2018-08-23T04:21:49.319Z,96955.00
2018-08-23T04:24:19.628Z,96950.00
2018-08-23T04:26:50.198Z,96956.00
2018-08-23T04:29:33.998Z,96959.00
2018-08-23T04:32:05.074Z,96961.00
2018-08-23T04:34:38.370Z,96964.00
2018-08-23T04:37:09.051Z,96961.00
2018-08-23T04:39:43.480Z,96959.00
2018-08-23T04:42:13.744Z,96960.00
2018-08-23T04:44:48.165Z,96964.00
2018-08-23T04:47:18.541Z,96963.00
2018-08-23T04:49:49.091Z,96967.00
2018-08-23T04:52:19.876Z,96969.00
2018-08-23T04:54:50.305Z,96972.00
2018-08-23T04:57:21.042Z,96976.00
2018-08-23T04:59:51.544Z,96970.00
2018-08-23T05:02:21.960Z,96974.00
2018-08-23T05:04:52.443Z,96977.00
2018-08-23T05:07:22.816Z,96979.00
2018-08-23T05:09:53.287Z,96979.00
2018-08-23T05:12:23.752Z,96982.00
2018-08-23T05:14:54.209Z,96982.00
2018-08-23T05:17:24.660Z,96983.00
2018-08-23T05:19:55.008Z,96979.00
2018-08-23T05:22:25.365Z,96980.00
2018-08-23T05:25:00.988Z,96984.00
2018-08-23T05:27:31.440Z,96984.00
2018-08-23T05:30:01.827Z,96988.00
2018-08-23T05:32:32.165Z,96987.00
2018-08-23T05:35:02.552Z,96987.00
2018-08-23T05:37:32.837Z,96989.00
2018-08-23T05:40:03.173Z,96986.00
2018-08-23T05:42:51.663Z,96984.00
2018-08-23T05:45:27.737Z,96982.00
2018-08-23T05:47:58.323Z,96988.00
2018-08-23T05:50:32.558Z,96987.00
2018-08-23T05:53:02.871Z,96983.00
2018-08-23T05:55:33.255Z,96984.00
2018-08-23T05:58:15.027Z,96985.00
2018-08-23T06:00:56.748Z,96981.00
2018-08-23T06:03:27.519Z,96985.00
2018-08-23T06:05:58.323Z,96978.00
2018-08-23T06:08:28.608Z,96980.00
2018-08-23T06:11:06.335Z,96981.00
2018-08-23T06:13:36.687Z,96981.00
2018-08-23T06:16:07.878Z,96982.00
2018-08-23T06:18:38.575Z,96982.00
2018-08-23T06:21:09.431Z,96984.00
2018-08-23T06:24:00.368Z,96975.00
2018-08-23T06:26:43.443Z,96974.00
2018-08-23T06:29:21.194Z,96972.00
2018-08-23T06:32:13.114Z,96982.00
2018-08-23T06:34:46.645Z,96972.00
2018-08-23T06:37:18.426Z,96978.00
2018-08-23T06:39:49.439Z,96974.00
2018-08-23T06:42:20.195Z,96967.00
2018-08-23T06:44:54.188Z,96962.00
2018-08-23T06:47:26.562Z,96970.00
2018-08-23T06:53:10.594Z,96969.00
2018-08-23T06:55:41.274Z,96971.00
2018-08-23T06:58:11.911Z,96973.00
2018-08-23T07:00:43.265Z,96971.00
2018-08-23T07:03:13.943Z,96970.00
2018-08-23T07:05:45.332Z,96969.00
2018-08-23T07:08:15.947Z,96964.00
2018-08-23T07:10:46.745Z,96962.00
2018-08-23T07:13:17.649Z,96968.00
2018-08-23T07:15:52.335Z,96971.00
2018-08-23T07:18:22.979Z,96966.00
2018-08-23T07:20:53.971Z,96968.00
2018-08-23T07:23:36.011Z,96971.00
2018-08-23T07:26:07.924Z,96966.00
2018-08-23T07:28:38.814Z,96970.00
2018-08-23T07:31:09.471Z,96968.00
2018-08-23T07:33:41.407Z,96962.00
2018-08-23T07:36:25.406Z,96966.00
2018-08-23T07:38:56.923Z,96970.00
2018-08-23T07:41:27.852Z,96961.00
2018-08-23T07:43:58.470Z,96961.00
2018-08-23T07:46:29.422Z,96962.00
2018-08-23T07:49:00.133Z,96966.00
2018-08-23T07:51:31.063Z,96962.00
2018-08-23T07:54:05.533Z,96965.00
2018-08-23T07:56:36.630Z,96961.00
2018-08-23T07:59:08.039Z,96963.00
2018-08-23T08:01:39.036Z,96958.00
2018-08-23T08:04:11.901Z,96961.00
2018-08-23T08:06:42.624Z,96956.00
2018-08-23T08:09:13.973Z,96959.00
2018-08-23T08:11:53.122Z,96960.00
2018-08-23T08:14:28.622Z,96958.00
2018-08-23T08:17:15.851Z,96964.00
2018-08-23T08:19:55.816Z,96967.00
2018-08-23T08:22:26.141Z,96966.00
2018-08-23T08:25:07.552Z,96967.00
2018-08-23T08:27:38.336Z,96965.00
2018-08-23T08:30:14.091Z,96963.00
2018-08-23T08:32:44.741Z,96964.00
2018-08-23T08:35:19.191Z,96962.00
2018-08-23T08:37:50.654Z,96954.00
2018-08-23T08:40:22.996Z,96960.00
2018-08-23T08:42:53.416Z,96965.00
2018-08-23T08:45:27.493Z,96958.00
2018-08-23T08:48:31.436Z,96958.00
2018-08-23T08:51:23.039Z,96964.00
2018-08-23T08:53:54.207Z,96959.00
2018-08-23T08:56:34.481Z,96952.00
2018-08-23T08:59:04.835Z,96954.00
2018-08-23T09:01:35.182Z,96951.00
2018-08-23T09:04:05.822Z,96949.00
2018-08-23T09:06:44.246Z,96954.00
2018-08-23T09:09:21.660Z,96950.00
2018-08-23T09:11:52.171Z,96954.00
2018-08-23T09:14:22.998Z,96950.00
2018-08-23T09:16:53.615Z,96951.00
2018-08-23T09:19:28.582Z,96948.00
2018-08-23T09:22:07.880Z,96947.00
2018-08-23T09:24:39.627Z,96937.00
2018-08-23T09:27:18.769Z,96940.00
2018-08-23T09:29:49.005Z,96937.00
2018-08-23T09:32:24.492Z,96943.00
2018-08-23T09:35:02.879Z,96941.00
2018-08-23T09:37:36.777Z,96937.00
2018-08-23T09:40:08.196Z,96936.00
2018-08-23T09:42:39.226Z,96934.00
2018-08-23T09:45:17.711Z,96930.00
2018-08-23T09:47:48.038Z,96938.00
2018-08-23T09:50:19.122Z,96928.00
2018-08-23T09:52:50.507Z,96927.00
2018-08-23T09:55:21.775Z,96918.00
2018-08-23T09:57:52.186Z,96919.00
2018-08-23T10:00:27.846Z,96915.00
2018-08-23T10:03:04.907Z,96914.00
2018-08-23T10:05:44.721Z,96914.00
2018-08-23T10:08:20.262Z,96908.00
2018-08-23T10:10:55.732Z,96910.00
2018-08-23T10:13:50.876Z,96910.00
2018-08-23T10:16:26.346Z,96910.00
2018-08-23T10:18:58.958Z,96906.00
2018-08-23T10:21:35.513Z,96913.00
2018-08-23T10:24:18.424Z,96902.00
2018-08-23T10:26:48.911Z,96907.00
2018-08-23T10:29:19.489Z,96903.00
2018-08-23T10:31:49.999Z,96905.00
2018-08-23T10:34:20.461Z,96907.00
2018-08-23T10:36:50.747Z,96902.00
2018-08-23T10:39:21.422Z,96898.00
2018-08-23T10:41:51.901Z,96900.00
2018-08-23T10:44:23.356Z,96899.00
2018-08-23T10:46:56.324Z,96896.00
2018-08-23T10:49:27.562Z,96892.00
2018-08-23T10:51:58.699Z,96889.00
2018-08-23T10:54:29.275Z,96887.00
2018-08-23T10:56:59.853Z,96888.00
2018-08-23T10:59:30.751Z,96884.00
2018-08-23T11:02:01.213Z,96873.00
2018-08-23T11:04:32.246Z,96877.00
2018-08-23T11:07:03.487Z,96875.00
2018-08-23T11:09:39.185Z,96870.00
2018-08-23T11:12:16.355Z,96861.00
2018-08-23T11:14:46.818Z,96864.00
2018-08-23T11:17:22.451Z,96853.00
2018-08-23T11:19:57.694Z,96855.00
2018-08-23T11:22:33.099Z,96842.00
2018-08-23T11:25:03.466Z,96843.00
2018-08-23T11:27:33.859Z,96837.00
2018-08-23T11:30:04.475Z,96829.00
2018-08-23T11:32:34.819Z,96827.00
2018-08-23T11:35:05.148Z,96822.00
2018-08-23T11:37:35.658Z,96813.00
2018-08-23T11:40:06.319Z,96815.00
2018-08-23T11:42:36.812Z,96812.00
2018-08-23T11:45:07.486Z,96808.00
2018-08-23T11:47:37.778Z,96801.00
2018-08-23T11:50:08.153Z,96804.00
2018-08-23T11:52:40.386Z,96794.00
2018-08-23T11:55:11.825Z,96781.00
2018-08-23T11:57:43.593Z,96782.00
2018-08-23T12:00:14.600Z,96779.00
2018-08-23T12:02:45.225Z,96766.00
2018-08-23T12:05:16.814Z,96765.00
2018-08-23T12:07:48.352Z,96761.00
2018-08-23T12:10:19.750Z,96758.00
2018-08-23T12:12:51.763Z,96756.00
2018-08-23T12:15:34.663Z,96751.00
2018-08-23T12:18:04.975Z,96752.00
2018-08-23T12:20:35.427Z,96748.00
2018-08-23T12:23:05.747Z,96752.00
2018-08-23T12:25:36.299Z,96736.00
2018-08-23T12:28:11.418Z,96737.00
2018-08-23T12:30:43.604Z,96731.00
2018-08-23T12:33:13.984Z,96724.00
2018-08-23T12:35:44.374Z,96721.00
2018-08-23T12:38:21.526Z,96713.00
2018-08-23T12:41:54.956Z,96715.00
2018-08-23T12:44:25.251Z,96710.00
2018-08-23T12:47:00.763Z,96700.00
2018-08-23T12:49:31.263Z,96701.00
2018-08-23T12:52:01.454Z,96702.00
2018-08-23T12:54:32.174Z,96712.00
2018-08-23T12:57:02.352Z,96716.00
2018-08-23T12:59:32.680Z,96724.00
2018-08-23T13:02:03.245Z,96715.00
2018-08-23T13:04:33.574Z,96712.00
2018-08-23T13:07:04.402Z,96710.00
2018-08-23T13:09:34.712Z,96704.00
2018-08-23T13:12:05.151Z,96710.00
2018-08-23T13:14:35.478Z,96708.00
2018-08-23T13:17:05.824Z,96702.00
2018-08-23T13:19:38.167Z,96696.00
2018-08-23T13:22:08.623Z,96696.00
2018-08-23T13:24:44.094Z,96696.00
2018-08-23T13:27:18.173Z,96689.00
2018-08-23T13:29:48.543Z,96690.00
2018-08-23T13:32:18.666Z,96686.00
2018-08-23T13:34:49.119Z,96688.00
2018-08-23T13:37:19.418Z,96685.00
2018-08-23T13:39:49.602Z,96690.00
2018-08-23T13:42:20.475Z,96691.00
2018-08-23T13:44:50.922Z,96697.00
2018-08-23T13:47:21.279Z,96700.00
2018-08-23T13:49:55.798Z,96697.00
2018-08-23T13:52:26.082Z,96691.00
2018-08-23T13:54:56.362Z,96693.00
2018-08-23T13:57:26.752Z,96695.00
2018-08-23T13:59:57.141Z,96699.00
2018-08-23T14:02:27.704Z,96708.00
2018-08-23T14:04:58.083Z,96710.00
2018-08-23T14:07:28.498Z,96710.00
2018-08-23T14:10:04.189Z,96708.00
2018-08-23T14:12:34.841Z,96713.00
2018-08-23T14:15:05.716Z,96722.00
2018-08-23T14:17:36.283Z,96729.00
2018-08-23T14:20:07.104Z,96722.00
2018-08-23T14:22:37.827Z,96724.00
2018-08-23T14:25:08.459Z,96720.00
2018-08-23T14:27:43.919Z,96710.00
2018-08-23T14:30:14.699Z,96707.00
2018-08-23T14:32:45.594Z,96697.00
2018-08-23T14:35:16.527Z,96688.00
2018-08-23T14:37:47.159Z,96672.00
2018-08-23T14:40:17.576Z,96671.00
2018-08-23T14:42:48.417Z,96677.00
2018-08-23T14:45:22.930Z,96683.00
2018-08-23T14:47:58.508Z,96680.00
2018-08-23T14:50:29.142Z,96683.00
2018-08-23T14:52:59.646Z,96699.00
2018-08-23T14:55:35.202Z,96716.00
2018-08-23T14:58:05.826Z,96757.00
2018-08-23T15:00:46.750Z,96793.00
2018-08-23T15:03:17.650Z,96840.00
2018-08-23T15:05:48.280Z,96814.00
2018-08-23T15:08:18.968Z,96792.00
2018-08-23T15:10:49.822Z,96808.00
2018-08-23T15:13:20.204Z,96805.00
2018-08-23T15:15:52.662Z,96818.00
2018-08-23T15:18:23.456Z,96825.00
2018-08-23T15:20:54.269Z,96832.00
2018-08-23T15:23:25.791Z,96830.00
2018-08-23T15:25:56.114Z,96826.00
2018-08-23T15:28:26.886Z,96815.00
2018-08-23T15:30:57.628Z,96803.00
2018-08-23T15:33:28.381Z,96804.00
2018-08-23T15:35:59.282Z,96807.00
2018-08-23T15:38:29.691Z,96796.00
2018-08-23T15:41:00.367Z,96793.00
2018-08-23T15:43:30.742Z,96782.00
2018-08-23T15:46:01.429Z,96771.00
2018-08-23T15:48:31.853Z,96767.00
2018-08-23T15:51:02.511Z,96761.00
2018-08-23T15:53:32.883Z,96758.00
2018-08-23T15:56:03.631Z,96758.00
2018-08-23T15:58:34.295Z,96759.00
2018-08-23T16:01:04.908Z,96754.00
2018-08-23T16:03:35.587Z,96753.00
2018-08-23T16:06:06.479Z,96747.00
2018-08-23T16:08:41.945Z,96751.00
2018-08-23T16:11:12.675Z,96755.00
2018-08-23T16:13:43.203Z,96753.00
2018-08-23T16:16:18.921Z,96757.00
2018-08-23T16:19:52.024Z,96757.00
2018-08-23T16:22:22.582Z,96758.00
2018-08-23T16:25:00.079Z,96765.00
2018-08-23T16:27:30.603Z,96766.00
2018-08-23T16:30:01.080Z,96754.00
2018-08-23T16:32:33.723Z,96757.00
2018-08-23T16:35:04.219Z,96760.00
2018-08-23T16:37:35.284Z,96759.00
2018-08-23T16:40:06.118Z,96758.00
2018-08-23T16:42:36.839Z,96760.00
2018-08-23T16:45:07.202Z,96759.00
2018-08-23T16:47:37.703Z,96765.00
2018-08-23T16:50:08.228Z,96769.00
2018-08-23T16:52:38.810Z,96776.00
2018-08-23T16:55:09.289Z,96774.00
2018-08-23T16:57:39.882Z,96772.00
2018-08-23T17:00:10.379Z,96773.00
2018-08-23T17:02:41.183Z,96774.00
2018-08-23T17:05:11.799Z,96778.00
2018-08-23T17:07:42.304Z,96783.00
2018-08-23T17:10:12.914Z,96775.00
2018-08-23T17:12:43.541Z,96759.00
2018-08-23T17:15:14.805Z,96753.00
2018-08-23T17:17:48.859Z,96754.00
2018-08-23T17:20:19.460Z,96750.00
2018-08-23T17:22:50.216Z,96758.00
2018-08-23T17:25:21.023Z,96758.00
2018-08-23T17:27:51.518Z,96756.00
2018-08-23T17:30:22.385Z,96751.00
2018-08-23T17:32:53.640Z,96749.00
2018-08-23T17:35:24.756Z,96747.00
2018-08-23T17:37:55.760Z,96747.00
2018-08-23T17:40:26.507Z,96752.00
2018-08-23T17:42:57.355Z,96759.00
2018-08-23T17:45:27.682Z,96761.00
2018-08-23T17:47:58.486Z,96761.00
2018-08-23T17:50:28.628Z,96765.00
2018-08-23T17:52:59.187Z,96772.00
2018-08-23T17:55:29.611Z,96778.00
2018-08-23T17:58:00.962Z,96780.00
2018-08-23T18:00:31.619Z,96784.00
2018-08-23T18:03:02.268Z,96787.00
2018-08-23T18:05:32.611Z,96797.00
2018-08-23T18:08:03.249Z,96791.00
2018-08-23T18:10:33.581Z,96792.00
2018-08-23T18:13:04.546Z,96787.00
2018-08-23T18:15:40.114Z,96787.00
2018-08-23T18:18:16.188Z,96783.00
2018-08-23T18:20:46.647Z,96781.00
2018-08-23T18:23:17.547Z,96778.00
2018-08-23T18:25:48.284Z,96784.00
2018-08-23T18:28:19.275Z,96778.00
2018-08-23T18:30:50.104Z,96773.00
2018-08-23T18:33:20.784Z,96767.00
2018-08-23T18:35:51.258Z,96763.00
2018-08-23T18:38:21.707Z,96761.00
2018-08-23T18:40:52.327Z,96756.00
2018-08-23T18:43:22.854Z,96747.00
2018-08-23T18:45:53.743Z,96742.00
2018-08-23T18:48:24.319Z,96742.00
2018-08-23T18:50:54.674Z,96747.00
2018-08-23T18:53:25.514Z,96747.00
2018-08-23T18:55:56.207Z,96757.00
2018-08-23T18:58:27.075Z,96759.00
2018-08-23T19:00:57.885Z,96756.00
2018-08-23T19:03:28.944Z,96751.00
2018-08-23T19:05:59.395Z,96750.00
2018-08-23T19:08:29.746Z,96752.00
2018-08-23T19:11:01.529Z,96754.00
2018-08-23T19:13:37.293Z,96753.00
2018-08-23T19:16:15.910Z,96760.00
2018-08-23T19:18:47.111Z,96768.00
2018-08-23T19:21:18.355Z,96771.00
2018-08-23T19:23:49.739Z,96768.00
2018-08-23T19:26:20.545Z,96780.00
2018-08-23T19:28:51.099Z,96783.00
2018-08-23T19:31:22.039Z,96790.00
2018-08-23T19:33:52.615Z,96789.00
2018-08-23T19:36:23.701Z,96788.00
2018-08-23T19:38:55.039Z,96793.00
2018-08-23T19:41:25.643Z,96802.00
2018-08-23T19:43:57.465Z,96806.00
2018-08-23T19:46:33.040Z,96800.00
2018-08-23T19:49:09.093Z,96805.00
2018-08-23T19:51:40.841Z,96805.00
2018-08-23T19:54:11.616Z,96806.00
2018-08-23T19:56:42.831Z,96805.00
2018-08-23T19:59:13.640Z,96813.00
2018-08-23T20:01:44.171Z,96822.00
2018-08-23T20:04:15.252Z,96840.00
2018-08-23T20:06:46.084Z,96849.00
2018-08-23T20:09:17.110Z,96836.00
2018-08-23T20:11:50.078Z,96841.00
2018-08-23T20:14:21.710Z,96842.00
2018-08-23T20:17:08.342Z,96847.00
2018-08-23T20:19:39.020Z,96842.00
2018-08-23T20:22:13.119Z,96841.00
2018-08-23T20:24:50.718Z,96837.00
2018-08-23T20:27:23.240Z,96831.00
2018-08-23T20:29:54.697Z,96823.00
2018-08-23T20:32:25.713Z,96813.00
2018-08-23T20:35:00.682Z,96817.00
2018-08-23T20:37:34.409Z,96823.00
2018-08-23T20:40:07.307Z,96817.00
2018-08-23T20:42:38.318Z,96815.00
2018-08-23T20:45:09.332Z,96811.00
2018-08-23T20:47:48.793Z,96821.00
2018-08-23T20:50:20.057Z,96824.00
2018-08-23T20:52:50.848Z,96841.00
2018-08-23T20:55:21.519Z,96850.00
2018-08-23T20:57:52.352Z,96861.00
2018-08-23T21:00:23.591Z,96858.00
2018-08-23T21:02:54.513Z,96846.00
2018-08-23T21:05:25.528Z,96831.00
2018-08-23T21:07:56.480Z,96832.00
2018-08-23T21:10:28.055Z,96841.00
2018-08-23T21:12:58.927Z,96852.00
2018-08-23T21:15:38.021Z,96853.00
2018-08-23T21:18:11.159Z,96857.00
2018-08-23T21:20:42.298Z,96859.00
2018-08-23T21:23:13.055Z,96864.00
2018-08-23T21:26:02.551Z,96872.00
2018-08-23T21:28:33.533Z,96879.00
2018-08-23T21:31:11.768Z,96876.00
2018-08-23T21:33:44.062Z,96870.00
2018-08-23T21:36:17.294Z,96865.00
2018-08-23T21:38:52.120Z,96854.00
2018-08-23T21:41:23.082Z,96840.00
2018-08-23T21:43:54.095Z,96836.00
2018-08-23T21:46:25.108Z,96820.00
2018-08-23T21:48:58.293Z,96812.00
2018-08-23T21:51:33.440Z,96803.00
2018-08-23T21:54:04.428Z,96810.00
2018-08-23T21:56:35.844Z,96801.00
2018-08-23T21:59:06.451Z,96800.00
2018-08-23T22:01:37.344Z,96799.00
2018-08-23T22:04:08.098Z,96797.00
2018-08-23T22:06:39.500Z,96796.00
2018-08-23T22:09:11.376Z,96795.00
2018-08-23T22:11:43.700Z,96808.00
2018-08-23T22:14:17.044Z,96808.00
2018-08-23T22:16:49.722Z,96801.00
2018-08-23T22:19:20.470Z,96797.00
2018-08-23T22:21:51.370Z,96798.00
2018-08-23T22:24:22.027Z,96791.00
2018-08-23T22:26:52.899Z,96796.00
2018-08-23T22:29:23.126Z,96793.00
2018-08-23T22:31:53.590Z,96788.00
2018-08-23T22:34:26.832Z,96794.00
2018-08-23T22:36:57.426Z,96791.00
2018-08-23T22:39:27.900Z,96786.00
2018-08-23T22:41:58.818Z,96794.00
2018-08-23T22:44:29.316Z,96802.00
2018-08-23T22:47:04.084Z,96799.00
2018-08-23T22:49:34.625Z,96802.00
2018-08-23T22:52:05.490Z,96793.00
2018-08-23T22:54:43.512Z,96803.00
2018-08-23T22:57:13.992Z,96803.00
2018-08-23T22:59:44.453Z,96789.00
2018-08-23T23:02:21.674Z,96786.00
2018-08-23T23:04:52.157Z,96779.00
2018-08-23T23:07:22.607Z,96786.00
2018-08-23T23:09:53.275Z,96786.00
2018-08-23T23:12:23.917Z,96788.00
2018-08-23T23:15:10.090Z,96792.00
2018-08-23T23:17:40.462Z,96785.00
2018-08-23T23:20:10.879Z,96794.00
2018-08-23T23:22:41.544Z,96797.00
2018-08-23T23:25:12.050Z,96799.00
2018-08-23T23:27:42.834Z,96812.00
2018-08-23T23:30:13.339Z,96813.00
2018-08-23T23:32:43.748Z,96818.00
2018-08-23T23:35:14.159Z,96821.00
2018-08-23T23:37:52.362Z,96820.00
2018-08-23T23:40:22.890Z,96828.00
2018-08-23T23:42:53.215Z,96825.00
2018-08-23T23:45:23.559Z,96828.00
2018-08-23T23:47:53.984Z,96828.00
2018-08-23T23:50:24.431Z,96834.00
2018-08-23T23:52:54.820Z,96850.00
2018-08-23T23:55:25.471Z,96860.00
2018-08-23T23:57:56.113Z,96883.00
